Time;durP1;ratioP1;P1;durP2;ratioP2;P2;SDS_P1;SDS_P2;PMS_P1;PMS_P2;Temp;Humidity;BMP_temperature;BMP_pressure;BME280_temperature;BME280_humidity;BME280_pressure;Samples;Min_cycle;Max_cycle;Signal;HPM_P1;HPM_P2
2021/06/27 00:00:34;;;;;;;38.03;22.73;;;;;;;12.93;100.00;98067.22;4997328;28;20496;-89
2021/06/27 00:03:03;;;;;;;38.90;23.45;;;;;;;12.89;100.00;98058.06;4996020;28;20054;-89
2021/06/27 00:05:32;;;;;;;32.15;22.85;;;;;;;12.92;100.00;98065.59;4996397;28;20045;-89
2021/06/27 00:08:00;;;;;;;37.58;23.90;;;;;;;12.94;100.00;98076.94;4994858;28;20142;-89
2021/06/27 00:10:34;;;;;;;39.50;23.08;;;;;;;12.83;100.00;98075.66;4981426;28;20053;-92
2021/06/27 00:13:02;;;;;;;37.67;22.85;;;;;;;12.71;100.00;98057.28;4996404;28;20050;-90
2021/06/27 00:15:36;;;;;;;36.72;23.77;;;;;;;12.84;100.00;98086.22;4980453;28;20072;-89
2021/06/27 00:18:05;;;;;;;36.22;23.05;;;;;;;12.80;100.00;98079.78;4996983;28;20038;-90
2021/06/27 00:20:33;;;;;;;33.85;20.92;;;;;;;12.65;100.00;98074.03;4979561;28;20120;-89
2021/06/27 00:23:02;;;;;;;35.88;20.17;;;;;;;12.67;100.00;98069.88;4979886;28;20734;-89
2021/06/27 00:25:30;;;;;;;36.72;21.08;;;;;;;12.76;100.00;98065.25;4981893;28;20094;-89
2021/06/27 00:27:59;;;;;;;37.08;22.08;;;;;;;12.88;100.00;98070.06;4959903;28;20564;-89
2021/06/27 00:30:27;;;;;;;39.78;22.13;;;;;;;12.75;100.00;98055.50;4980114;28;20035;-90
2021/06/27 00:32:56;;;;;;;34.03;21.58;;;;;;;12.75;100.00;98060.94;4997489;28;20062;-90
2021/06/27 00:35:25;;;;;;;32.45;20.13;;;;;;;12.87;100.00;98073.91;4996125;28;20050;-88
2021/06/27 00:37:55;;;;;;;30.77;20.27;;;;;;;12.87;100.00;98071.19;4960215;28;20506;-88
2021/06/27 00:40:24;;;;;;;29.55;19.88;;;;;;;12.85;100.00;98059.84;4959843;28;20050;-88
2021/06/27 00:42:51;;;;;;;27.88;18.08;;;;;;;12.80;100.00;98054.56;4959479;28;20058;-89
2021/06/27 00:45:20;;;;;;;33.13;18.98;;;;;;;12.88;100.00;98060.00;4976162;28;20057;-89
2021/06/27 00:47:49;;;;;;;31.40;18.08;;;;;;;12.84;100.00;98058.22;4973088;28;20047;-91
2021/06/27 00:50:22;;;;;;;26.45;17.60;;;;;;;12.83;100.00;98054.72;4984707;28;20046;-89
2021/06/27 00:52:48;;;;;;;27.00;18.73;;;;;;;12.82;100.00;98064.00;4975960;28;20050;-89
2021/06/27 00:55:17;;;;;;;28.05;18.45;;;;;;;12.69;100.00;98050.56;4959980;28;20076;-88
2021/06/27 00:57:45;;;;;;;27.52;19.25;;;;;;;12.67;100.00;98066.38;4959212;28;20046;-89
2021/06/27 01:00:22;;;;;;;27.13;18.98;;;;;;;12.59;100.00;98048.16;4975294;28;20080;-89
2021/06/27 01:02:49;;;;;;;31.13;18.73;;;;;;;12.50;100.00;98062.50;4959839;28;20050;-91
2021/06/27 01:05:33;;;;;;;26.85;19.42;;;;;;;12.50;100.00;98053.56;4976245;28;20108;-89
2021/06/27 01:08:00;;;;;;;33.45;21.48;;;;;;;12.42;100.00;98063.28;4976455;28;20085;-88
2021/06/27 01:10:29;;;;;;;33.88;20.25;;;;;;;12.33;100.00;98061.69;4975567;28;20412;-88
2021/06/27 01:12:57;;;;;;;29.58;18.40;;;;;;;12.22;100.00;98054.94;4976030;28;20109;-89
2021/06/27 01:15:24;;;;;;;32.90;20.40;;;;;;;12.22;100.00;98054.94;4960678;28;20055;-88
2021/06/27 01:17:54;;;;;;;32.97;20.92;;;;;;;12.26;100.00;98059.41;4967038;28;20604;-89
2021/06/27 01:20:27;;;;;;;33.50;20.42;;;;;;;12.33;100.00;98065.19;4965233;28;20050;-89
2021/06/27 01:22:56;;;;;;;29.13;20.52;;;;;;;12.28;100.00;98051.78;4960967;28;20074;-88
2021/06/27 01:25:33;;;;;;;36.40;22.80;;;;;;;12.20;100.00;98047.13;4976147;28;20085;-88
2021/06/27 01:28:00;;;;;;;39.50;22.98;;;;;;;12.11;100.00;98037.31;4975620;28;20043;-89
2021/06/27 01:30:28;;;;;;;43.42;22.60;;;;;;;12.09;100.00;98058.56;4958577;28;20049;-87
2021/06/27 01:32:57;;;;;;;48.42;23.83;;;;;;;12.03;100.00;98051.66;4959584;28;20046;-88
2021/06/27 01:35:26;;;;;;;39.20;25.00;;;;;;;12.08;100.00;98046.13;4959225;28;20328;-87
2021/06/27 01:37:56;;;;;;;38.45;23.67;;;;;;;12.13;100.00;98046.75;4975078;28;20119;-87
2021/06/27 01:40:28;;;;;;;35.42;22.88;;;;;;;12.14;100.00;98047.56;4969913;28;20084;-89
2021/06/27 01:43:16;;;;;;;36.22;22.85;;;;;;;12.21;100.00;98056.03;4974346;28;20145;-89
2021/06/27 01:45:52;;;;;;;40.72;23.73;;;;;;;12.22;100.00;98042.16;4960633;28;20305;-88
2021/06/27 01:48:19;;;;;;;32.97;21.15;;;;;;;12.24;100.00;98049.97;4978272;28;20301;-88
2021/06/27 01:50:49;;;;;;;35.67;20.60;;;;;;;12.23;100.00;98048.41;4962574;28;20118;-88
2021/06/27 01:53:18;;;;;;;31.17;20.02;;;;;;;12.18;100.00;98043.88;4960722;28;20046;-89
2021/06/27 01:55:46;;;;;;;33.97;19.92;;;;;;;12.16;100.00;98037.97;4961760;28;20080;-88
2021/06/27 01:58:13;;;;;;;39.17;21.17;;;;;;;12.09;100.00;98042.28;4961115;28;20053;-88
2021/06/27 02:00:41;;;;;;;38.15;20.67;;;;;;;11.95;100.00;98023.38;4975063;28;20296;-89
2021/06/27 02:03:15;;;;;;;34.75;20.35;;;;;;;11.98;100.00;98033.59;4974519;28;20202;-88
2021/06/27 02:05:44;;;;;;;43.35;21.65;;;;;;;11.95;100.00;98028.81;4959183;28;20057;-88
2021/06/27 02:08:11;;;;;;;34.67;19.55;;;;;;;11.94;100.00;98029.94;4967350;28;20501;-88
2021/06/27 02:10:38;;;;;;;36.42;19.92;;;;;;;11.95;100.00;98030.75;4958274;28;20061;-87
2021/06/27 02:13:05;;;;;;;29.88;18.88;;;;;;;11.90;100.00;98023.53;4958654;28;20461;-87
2021/06/27 02:15:31;;;;;;;33.58;20.02;;;;;;;12.00;100.00;98036.81;4958810;28;20054;-88
2021/06/27 02:18:08;;;;;;;42.47;20.48;;;;;;;11.99;100.00;98042.56;4974522;28;20051;-88
2021/06/27 02:20:38;;;;;;;32.80;20.00;;;;;;;11.86;100.00;98036.13;4975180;28;20050;-89
2021/06/27 02:23:05;;;;;;;37.28;19.88;;;;;;;11.90;100.00;98037.09;4958978;28;20046;-87
2021/06/27 02:25:32;;;;;;;35.65;20.25;;;;;;;11.81;100.00;98034.34;4974929;28;20069;-87
2021/06/27 02:27:58;;;;;;;35.38;18.83;;;;;;;11.78;100.00;98042.31;4958838;28;20046;-88
2021/06/27 02:30:25;;;;;;;32.30;18.73;;;;;;;11.66;100.00;98029.31;4958634;28;20073;-88
2021/06/27 02:32:52;;;;;;;37.67;21.60;;;;;;;11.66;100.00;98042.88;4961526;28;20078;-88
2021/06/27 02:35:19;;;;;;;34.78;24.13;;;;;;;11.59;100.00;98045.22;4978130;28;20050;-87
2021/06/27 02:37:46;;;;;;;38.20;24.67;;;;;;;11.68;100.00;98037.13;4978238;28;20051;-88
2021/06/27 02:40:13;;;;;;;39.85;23.95;;;;;;;11.73;100.00;98054.09;4977381;28;20050;-91
2021/06/27 02:42:40;;;;;;;40.60;25.17;;;;;;;11.65;100.00;98043.97;4961947;28;20066;-87
2021/06/27 02:45:09;;;;;;;36.25;22.83;;;;;;;11.63;100.00;98045.41;4975832;28;20049;-92
2021/06/27 02:47:37;;;;;;;42.83;22.60;;;;;;;11.49;100.00;98031.91;4983680;28;20054;-90
2021/06/27 02:50:07;;;;;;;40.60;21.88;;;;;;;11.53;100.00;98041.06;4994540;28;20081;-87
2021/06/27 02:52:34;;;;;;;32.42;22.02;;;;;;;11.53;100.00;98038.34;4963989;28;20069;-87
2021/06/27 02:55:01;;;;;;;36.25;22.30;;;;;;;11.47;100.00;98033.34;4964107;28;20543;-88
2021/06/27 02:57:28;;;;;;;34.22;20.95;;;;;;;11.42;100.00;98028.84;4963784;28;20510;-89
2021/06/27 02:59:58;;;;;;;35.47;20.95;;;;;;;11.48;100.00;98022.22;4979684;28;20053;-90
2021/06/27 03:02:25;;;;;;;28.45;20.58;;;;;;;11.59;100.00;98031.66;4963848;28;20060;-89
2021/06/27 03:04:52;;;;;;;29.25;19.88;;;;;;;11.58;100.00;98018.41;4962820;28;20414;-89
2021/06/27 03:07:18;;;;;;;38.17;20.05;;;;;;;11.63;100.00;98026.41;4979886;28;20050;-90
2021/06/27 03:09:48;;;;;;;37.92;19.17;;;;;;;11.60;100.00;98016.19;4979348;28;20417;-89
2021/06/27 03:12:15;;;;;;;27.92;18.33;;;;;;;11.58;100.00;98010.28;4979717;28;20050;-87
2021/06/27 03:14:41;;;;;;;27.75;18.77;;;;;;;11.69;100.00;98028.69;4963527;28;20046;-88
2021/06/27 03:17:08;;;;;;;35.10;19.20;;;;;;;11.66;100.00;98021.19;4983232;28;20065;-90
2021/06/27 03:19:35;;;;;;;31.85;19.15;;;;;;;11.67;100.00;98020.06;4980678;28;20779;-90
2021/06/27 03:22:02;;;;;;;35.42;18.80;;;;;;;11.68;100.00;98015.44;4980880;28;20053;-88
2021/06/27 03:24:29;;;;;;;31.23;19.30;;;;;;;11.71;100.00;98021.06;4980441;28;20054;-87
2021/06/27 03:26:57;;;;;;;33.17;16.65;;;;;;;11.79;100.00;98033.06;4971363;28;20074;-88
2021/06/27 03:29:23;;;;;;;30.00;17.60;;;;;;;11.76;100.00;98033.69;4980033;28;20047;-87
2021/06/27 03:31:51;;;;;;;28.98;17.08;;;;;;;11.72;100.00;98021.84;4979269;28;20046;-87
2021/06/27 03:34:17;;;;;;;30.90;17.42;;;;;;;11.76;100.00;98037.22;4962595;28;20057;-88
2021/06/27 03:36:44;;;;;;;27.58;17.20;;;;;;;11.78;100.00;98028.75;4963405;28;20050;-87
2021/06/27 03:39:13;;;;;;;29.83;17.77;;;;;;;11.80;100.00;98026.50;4978483;28;20061;-87
2021/06/27 03:41:43;;;;;;;23.40;16.90;;;;;;;11.85;100.00;98029.09;4978403;28;20050;-89
2021/06/27 03:44:13;;;;;;;29.75;17.33;;;;;;;11.89;100.00;98032.78;4962450;28;20046;-88
2021/06/27 03:46:40;;;;;;;23.50;16.73;;;;;;;11.93;100.00;98028.31;4964622;28;20046;-89
2021/06/27 03:49:07;;;;;;;29.85;19.48;;;;;;;11.93;100.00;98025.63;4980014;28;20042;-88
2021/06/27 03:51:34;;;;;;;34.35;20.80;;;;;;;12.02;100.00;98028.38;4969007;28;20049;-89
2021/06/27 03:54:01;;;;;;;30.17;20.67;;;;;;;12.06;100.00;98042.88;4965209;28;20061;-90
2021/06/27 03:56:31;;;;;;;31.05;20.42;;;;;;;12.10;100.00;98052.03;4990966;28;20046;-88
2021/06/27 03:58:58;;;;;;;32.80;20.58;;;;;;;12.17;100.00;98039.59;4987159;28;20076;-89
2021/06/27 04:01:25;;;;;;;34.97;21.80;;;;;;;12.17;100.00;98038.78;4981556;28;20081;-88
2021/06/27 04:03:52;;;;;;;32.30;23.65;;;;;;;12.25;100.00;98044.25;4978658;28;20050;-89
2021/06/27 04:06:18;;;;;;;40.45;23.70;;;;;;;12.22;100.00;98031.31;4962590;28;20050;-89
2021/06/27 04:08:45;;;;;;;36.45;23.67;;;;;;;12.38;100.00;98047.94;4978447;28;20042;-89
2021/06/27 04:11:12;;;;;;;39.25;22.98;;;;;;;12.45;100.00;98059.13;4962874;28;20050;-89
2021/06/27 04:13:39;;;;;;;41.58;24.40;;;;;;;12.49;100.00;98049.25;4963032;28;20053;-90
2021/06/27 04:16:11;;;;;;;42.33;25.98;;;;;;;12.59;100.00;98057.09;4965979;28;20050;-93
2021/06/27 04:18:38;;;;;;;39.75;25.98;;;;;;;12.60;100.00;98055.16;4966097;28;20060;-88
2021/06/27 04:21:05;;;;;;;42.83;27.25;;;;;;;12.72;100.00;98058.06;4983055;28;20137;-90
2021/06/27 04:23:36;;;;;;;45.58;29.65;;;;;;;12.80;100.00;98057.28;4962325;28;20042;-88
2021/06/27 04:26:03;;;;;;;47.20;30.35;;;;;;;12.90;100.00;98068.66;4962574;28;20129;-89
2021/06/27 04:28:30;;;;;;;44.40;30.58;;;;;;;12.93;100.00;98051.69;4962552;28;20050;-89
2021/06/27 04:30:57;;;;;;;44.97;29.50;;;;;;;13.05;100.00;98057.28;4978863;28;20141;-90
2021/06/27 04:33:24;;;;;;;42.97;28.20;;;;;;;13.06;100.00;98045.31;4978429;28;20104;-90
2021/06/27 04:35:58;;;;;;;46.97;30.23;;;;;;;13.23;100.00;98044.50;4962518;28;20137;-89
2021/06/27 04:38:25;;;;;;;43.22;27.95;;;;;;;13.24;100.00;98039.88;4973516;28;20047;-89
2021/06/27 04:40:53;;;;;;;48.10;29.67;;;;;;;13.39;100.00;98042.09;4975848;28;20050;-89
2021/06/27 04:43:20;;;;;;;40.85;27.55;;;;;;;13.48;100.00;98040.94;4992603;28;20046;-88
2021/06/27 04:45:49;;;;;;;39.80;26.65;;;;;;;13.52;100.00;98046.53;4973245;28;20097;-92
2021/06/27 04:48:16;;;;;;;42.70;27.42;;;;;;;13.58;100.00;98035.16;4957575;28;20118;-91
2021/06/27 04:50:46;;;;;;;40.30;26.15;;;;;;;13.58;100.00;98031.63;4967195;28;20086;-90
2021/06/27 04:53:14;;;;;;;41.22;27.55;;;;;;;13.67;100.00;98033.22;4952317;28;20074;-90
2021/06/27 04:55:44;;;;;;;37.42;25.70;;;;;;;13.79;100.00;98037.97;4966395;28;20149;-90
2021/06/27 04:58:21;;;;;;;36.55;25.25;;;;;;;13.96;100.00;98039.84;5008287;28;20070;-90
2021/06/27 05:00:50;;;;;;;35.38;24.85;;;;;;;13.96;100.00;98023.50;4974637;28;20046;-89
2021/06/27 05:03:19;;;;;;;35.78;24.67;;;;;;;14.09;100.00;98027.94;4974807;28;20054;-89
2021/06/27 05:05:48;;;;;;;39.38;24.00;;;;;;;14.14;100.00;98022.31;4966408;28;20047;-88
2021/06/27 05:08:14;;;;;;;36.80;24.80;;;;;;;14.35;100.00;98023.16;4971067;28;20038;-89
2021/06/27 05:10:41;;;;;;;35.88;23.80;;;;;;;14.32;100.00;98005.53;4982513;28;20134;-89
2021/06/27 05:13:08;;;;;;;34.83;23.48;;;;;;;14.49;100.00;98020.19;4958672;28;20057;-89
2021/06/27 05:15:39;;;;;;;33.35;24.25;;;;;;;14.59;100.00;98017.06;4957884;28;20046;-89
2021/06/27 05:18:06;;;;;;;36.38;23.77;;;;;;;14.68;100.00;98015.91;4958440;28;20047;-90
2021/06/27 05:20:32;;;;;;;35.92;25.60;;;;;;;14.90;100.00;98021.00;4943824;28;20533;-81
2021/06/27 05:23:00;;;;;;;37.90;25.92;;;;;;;15.01;100.00;98024.13;4984122;28;20146;-79
2021/06/27 05:25:28;;;;;;;36.75;23.33;;;;;;;15.11;100.00;98031.09;4973723;28;20046;-87
2021/06/27 05:27:59;;;;;;;37.08;22.73;;;;;;;15.15;100.00;98016.47;4974414;28;20549;-86
2021/06/27 05:30:27;;;;;;;34.50;22.50;;;;;;;15.34;100.00;98021.41;4973343;28;20093;-87
2021/06/27 05:32:54;;;;;;;29.25;21.30;;;;;;;15.48;100.00;98019.22;4963201;28;20051;-89
2021/06/27 05:35:21;;;;;;;32.38;21.52;;;;;;;15.53;100.00;98016.28;4966270;28;20066;-87
2021/06/27 05:37:48;;;;;;;32.25;22.50;;;;;;;15.59;100.00;98009.47;4941958;28;20070;-87
2021/06/27 05:40:17;;;;;;;30.02;21.50;;;;;;;15.84;100.00;98034.88;4942423;28;20093;-87
2021/06/27 05:42:44;;;;;;;32.97;21.73;;;;;;;15.97;100.00;98031.03;4941862;28;20050;-84
2021/06/27 05:45:11;;;;;;;32.03;21.02;;;;;;;16.00;100.00;98020.22;4950249;28;20045;-86
2021/06/27 05:47:39;;;;;;;30.98;20.05;;;;;;;16.19;100.00;98020.47;4962020;28;20046;-87
2021/06/27 05:50:07;;;;;;;31.23;20.45;;;;;;;16.34;100.00;98031.81;4978301;28;20046;-86
2021/06/27 05:52:34;;;;;;;27.00;20.15;;;;;;;16.37;100.00;98012.81;5011091;28;20382;-86
2021/06/27 05:55:01;;;;;;;29.67;19.98;;;;;;;16.55;100.00;98019.66;4978268;28;20065;-86
2021/06/27 05:57:27;;;;;;;27.33;19.63;;;;;;;16.58;100.00;98004.50;4976317;28;20080;-83
2021/06/27 05:59:54;;;;;;;25.05;19.73;;;;;;;16.75;100.00;98012.44;4960015;28;20054;-84
2021/06/27 06:02:21;;;;;;;28.17;19.38;;;;;;;16.75;100.00;97994.09;4997931;28;20061;-86
2021/06/27 06:04:48;;;;;;;28.55;18.83;;;;;;;16.97;100.00;97994.72;4960829;28;20050;-86
2021/06/27 06:07:15;;;;;;;30.13;19.52;;;;;;;17.19;100.00;98005.09;4968750;28;20068;-86
2021/06/27 06:09:42;;;;;;;25.65;18.50;;;;;;;17.35;100.00;98012.22;4987673;28;20125;-84
2021/06/27 06:12:09;;;;;;;24.02;17.35;;;;;;;17.48;100.00;98007.47;4971093;28;20051;-85
2021/06/27 06:14:35;;;;;;;28.38;19.98;;;;;;;17.63;100.00;98014.94;4982329;28;20129;-83
2021/06/27 06:17:05;;;;;;;25.98;18.83;;;;;;;17.74;100.00;97993.31;4965308;28;20050;-86
2021/06/27 06:19:32;;;;;;;30.95;21.77;;;;;;;17.85;100.00;97989.72;4981039;28;20034;-87
2021/06/27 06:21:59;;;;;;;30.48;19.65;;;;;;;17.96;100.00;97992.72;4967157;28;20047;-87
2021/06/27 06:24:28;;;;;;;27.95;16.65;;;;;;;18.03;100.00;97970.97;4966072;28;20421;-86
2021/06/27 06:26:55;;;;;;;25.52;16.05;;;;;;;18.19;100.00;97979.16;4965742;28;20061;-87
2021/06/27 06:29:24;;;;;;;19.55;15.50;;;;;;;18.30;100.00;97966.53;4972685;28;20114;-86
2021/06/27 06:31:51;;;;;;;22.48;15.20;;;;;;;18.39;100.00;97969.84;4984882;28;20054;-84
2021/06/27 06:34:18;;;;;;;20.83;16.15;;;;;;;18.62;100.00;97968.03;4968791;28;20065;-82
2021/06/27 06:36:48;;;;;;;18.88;15.27;;;;;;;18.67;100.00;97971.31;4958208;28;20054;-84
2021/06/27 06:39:19;;;;;;;20.48;15.55;;;;;;;18.87;100.00;97977.59;4971233;28;20070;-84
2021/06/27 06:41:46;;;;;;;23.25;15.48;;;;;;;19.03;100.00;97972.81;4957689;28;20063;-84
2021/06/27 06:44:13;;;;;;;22.52;15.52;;;;;;;19.15;100.00;97974.63;4970901;28;20039;-85
2021/06/27 06:46:41;;;;;;;23.77;16.15;;;;;;;19.17;100.00;97956.66;4968603;28;20101;-85
2021/06/27 06:49:08;;;;;;;23.25;15.48;;;;;;;19.32;100.00;97970.63;4966581;28;20426;-84
2021/06/27 06:51:38;;;;;;;19.10;15.13;;;;;;;19.49;100.00;97973.72;4981795;28;20061;-84
2021/06/27 06:54:07;;;;;;;20.70;14.80;;;;;;;19.55;100.00;97969.53;4986973;28;20043;-84
2021/06/27 06:56:34;;;;;;;19.95;14.30;;;;;;;19.65;100.00;97959.91;4971238;28;20053;-85
2021/06/27 06:59:00;;;;;;;18.55;14.18;;;;;;;19.85;100.00;97969.66;4991991;28;20039;-84
2021/06/27 07:01:27;;;;;;;23.42;14.00;;;;;;;19.85;100.00;97951.22;4969576;28;20076;-83
2021/06/27 07:03:56;;;;;;;16.98;13.60;;;;;;;20.10;100.00;97967.31;4976340;28;20205;-85
2021/06/27 07:06:22;;;;;;;20.50;13.50;;;;;;;20.14;100.00;97966.22;4977209;28;20042;-80
2021/06/27 07:08:51;;;;;;;18.52;13.27;;;;;;;20.34;100.00;97970.47;4978401;28;20054;-81
2021/06/27 07:11:20;;;;;;;16.90;12.65;;;;;;;20.40;100.00;97968.19;4967905;28;20046;-77
2021/06/27 07:13:47;;;;;;;19.95;13.43;;;;;;;20.55;100.00;97974.69;4993671;28;20066;-78
2021/06/27 07:16:14;;;;;;;16.73;12.40;;;;;;;20.63;100.00;97968.13;4996498;28;20119;-77
2021/06/27 07:18:43;;;;;;;14.00;9.38;;;;;;;20.80;100.00;97964.84;4996373;28;20781;-82
2021/06/27 07:21:10;;;;;;;13.50;9.48;;;;;;;21.01;100.00;97963.13;4987081;28;20076;-82
2021/06/27 07:23:36;;;;;;;16.70;9.68;;;;;;;21.18;100.00;97961.78;5003680;28;20054;-82
2021/06/27 07:26:03;;;;;;;10.63;7.95;;;;;;;21.17;100.00;97960.19;4984385;28;20046;-85
2021/06/27 07:28:31;;;;;;;10.32;7.03;;;;;;;21.30;100.00;97958.78;4967313;28;20065;-80
2021/06/27 07:30:59;;;;;;;10.77;7.53;;;;;;;21.33;100.00;97963.53;4978571;28;20042;-79
2021/06/27 07:33:25;;;;;;;10.73;6.97;;;;;;;21.49;100.00;97975.13;4974708;28;20046;-75
2021/06/27 07:35:52;;;;;;;10.05;6.70;;;;;;;21.64;100.00;97960.31;4992019;28;20046;-80
2021/06/27 07:38:19;;;;;;;8.13;6.70;;;;;;;21.68;100.00;97961.13;4974965;28;20501;-80
2021/06/27 07:40:48;;;;;;;10.27;7.13;;;;;;;21.77;100.00;97960.03;4975348;28;20070;-80
2021/06/27 07:43:15;;;;;;;7.93;6.15;;;;;;;21.99;100.00;97956.31;4992150;28;20054;-76
2021/06/27 07:45:43;;;;;;;10.23;6.28;;;;;;;22.10;100.00;97954.41;4991343;28;20076;-74
2021/06/27 07:48:12;;;;;;;8.30;6.32;;;;;;;22.24;100.00;97958.09;4974010;28;20121;-74
2021/06/27 07:50:43;;;;;;;13.75;6.30;;;;;;;22.61;100.00;97965.44;4991215;28;20093;-75
2021/06/27 07:53:10;;;;;;;11.18;5.72;;;;;;;22.66;100.00;97957.56;4953342;28;20069;-74
2021/06/27 07:55:36;;;;;;;11.20;6.00;;;;;;;22.68;100.00;97954.44;5029246;23;20041;-81
2021/06/27 07:58:04;;;;;;;10.70;6.38;;;;;;;22.84;100.00;97960.44;5001275;28;20053;-79
2021/06/27 08:00:31;;;;;;;9.70;6.18;;;;;;;22.95;100.00;97969.56;5019435;28;20056;-79
2021/06/27 08:02:59;;;;;;;7.63;5.75;;;;;;;23.29;100.00;97959.81;5036588;28;20562;-79
2021/06/27 08:05:26;;;;;;;9.20;5.13;;;;;;;23.35;100.00;97966.56;5031443;28;20042;-81
2021/06/27 08:07:53;;;;;;;8.65;6.35;;;;;;;23.38;100.00;97965.78;5025989;28;20044;-81
2021/06/27 08:10:24;;;;;;;7.13;5.97;;;;;;;23.40;100.00;97965.41;5004871;28;20050;-84
2021/06/27 08:12:51;;;;;;;7.22;6.05;;;;;;;22.93;100.00;97958.91;5023694;28;20049;-77
2021/06/27 08:15:18;;;;;;;11.45;6.38;;;;;;;23.26;100.00;97959.81;5003953;28;20077;-80
2021/06/27 08:17:47;;;;;;;9.07;6.47;;;;;;;23.53;100.00;97956.38;5010898;28;20033;-83
2021/06/27 08:20:15;;;;;;;7.68;4.93;;;;;;;23.35;100.00;97955.50;5017238;28;20061;-84
2021/06/27 08:22:42;;;;;;;11.32;4.82;;;;;;;23.55;100.00;97951.22;5015482;28;20042;-79
2021/06/27 08:25:10;;;;;;;6.32;4.50;;;;;;;23.39;100.00;97956.31;4995850;28;20092;-80
2021/06/27 08:27:38;;;;;;;6.00;4.53;;;;;;;23.53;100.00;97961.09;5007809;28;20053;-81
2021/06/27 08:30:08;;;;;;;7.57;3.80;;;;;;;23.78;99.04;97956.41;5004815;28;20034;-80
2021/06/27 08:32:43;;;;;;;8.23;3.70;;;;;;;23.69;100.00;97950.47;5019559;28;20046;-77
2021/06/27 08:35:16;;;;;;;6.68;3.65;;;;;;;23.94;70.03;97950.47;5002167;28;20056;-80
2021/06/27 08:37:44;;;;;;;4.38;3.58;;;;;;;24.03;69.77;97951.66;5021593;28;20056;-79
2021/06/27 08:40:13;;;;;;;5.85;3.67;;;;;;;24.23;74.70;97952.09;5019387;28;20472;-79
2021/06/27 08:42:40;;;;;;;6.43;3.50;;;;;;;24.34;76.99;97946.53;5018968;28;20045;-78
2021/06/27 08:45:09;;;;;;;5.82;3.50;;;;;;;24.67;84.36;97946.84;4981865;28;20042;-81
2021/06/27 08:47:37;;;;;;;5.43;3.60;;;;;;;25.00;75.96;97944.78;4998978;28;20045;-79
2021/06/27 08:50:10;;;;;;;5.28;3.95;;;;;;;25.17;78.04;97944.72;5000301;28;20058;-78
2021/06/27 08:52:41;;;;;;;8.60;3.97;;;;;;;25.37;81.51;97943.00;5016517;28;20072;-78
2021/06/27 08:55:08;;;;;;;6.82;3.80;;;;;;;25.71;77.64;97946.00;5001825;28;20042;-78
2021/06/27 08:57:35;;;;;;;8.90;4.20;;;;;;;25.76;68.90;97945.56;4998924;28;20060;-79
2021/06/27 09:00:04;;;;;;;4.57;3.88;;;;;;;25.75;73.65;97946.78;5000071;28;20046;-79
2021/06/27 09:02:31;;;;;;;5.28;3.80;;;;;;;26.23;64.74;97941.25;5001937;28;20068;-78
2021/06/27 09:04:57;;;;;;;7.43;3.90;;;;;;;26.24;60.75;97942.03;5029561;28;20042;-82
2021/06/27 09:07:28;;;;;;;8.48;4.13;;;;;;;25.90;63.15;97944.69;5013970;28;20045;-84
2021/06/27 09:09:57;;;;;;;7.50;3.88;;;;;;;26.33;63.73;97932.03;4997600;28;20060;-81
2021/06/27 09:12:23;;;;;;;4.30;3.67;;;;;;;26.51;59.48;97926.28;5030507;28;20060;-82
2021/06/27 09:14:54;;;;;;;6.47;3.90;;;;;;;25.38;55.44;97938.25;5013283;28;20125;-83
2021/06/27 09:17:24;;;;;;;4.40;3.58;;;;;;;25.71;59.46;97932.13;5012515;28;20042;-83
2021/06/27 09:19:50;;;;;;;5.47;3.35;;;;;;;26.12;69.30;97945.31;5012490;28;20049;-82
2021/06/27 09:22:22;;;;;;;7.45;3.40;;;;;;;26.46;54.31;97926.75;5030718;28;20320;-83
2021/06/27 09:24:50;;;;;;;4.95;3.05;;;;;;;26.68;50.79;97935.63;5013606;28;20042;-83
2021/06/27 09:27:19;;;;;;;8.63;3.40;;;;;;;26.72;51.93;97925.25;5027715;28;20057;-83
2021/06/27 09:29:47;;;;;;;5.30;3.47;;;;;;;26.78;49.94;97929.22;5029881;28;20030;-83
2021/06/27 09:32:15;;;;;;;6.68;3.88;;;;;;;26.72;53.01;97930.81;5030922;28;20042;-83
2021/06/27 09:34:43;;;;;;;4.75;3.85;;;;;;;27.04;59.95;97929.28;5029629;28;20045;-84
2021/06/27 09:37:13;;;;;;;4.82;3.75;;;;;;;27.55;54.74;97939.34;4997278;28;20076;-84
2021/06/27 09:40:00;;;;;;;4.45;3.55;;;;;;;27.30;51.96;97927.75;5012059;28;20042;-83
2021/06/27 09:42:29;;;;;;;4.47;3.65;;;;;;;27.61;52.26;97918.19;5012637;28;20060;-84
2021/06/27 09:45:00;;;;;;;5.32;4.00;;;;;;;27.27;51.76;97927.78;5028810;28;20053;-84
2021/06/27 09:47:27;;;;;;;4.75;3.63;;;;;;;27.13;56.15;97925.97;5013303;28;20053;-83
2021/06/27 09:49:54;;;;;;;9.98;4.18;;;;;;;26.80;56.76;97916.47;5012134;28;20214;-83
2021/06/27 09:52:36;;;;;;;7.38;4.00;;;;;;;27.02;60.72;97911.44;5013314;28;20571;-82
2021/06/27 09:55:13;;;;;;;5.47;3.67;;;;;;;26.93;54.50;97916.72;5014771;28;20132;-84
2021/06/27 09:57:41;;;;;;;6.45;3.20;;;;;;;27.44;65.62;97921.22;5033158;28;20042;-83
2021/06/27 10:00:30;;;;;;;4.75;3.38;;;;;;;28.19;51.63;97910.50;5033045;28;20034;-82
2021/06/27 10:03:03;;;;;;;5.97;3.58;;;;;;;28.88;49.80;97910.38;5011250;28;20045;-82
2021/06/27 10:05:30;;;;;;;6.93;3.25;;;;;;;29.20;48.98;97915.34;4993798;28;20140;-82
2021/06/27 10:07:56;;;;;;;8.25;3.42;;;;;;;29.32;45.11;97908.31;5028966;28;20042;-81
2021/06/27 10:10:23;;;;;;;9.07;3.83;;;;;;;28.61;44.09;97908.94;5013151;28;20050;-86
2021/06/27 10:12:50;;;;;;;4.68;3.60;;;;;;;29.79;43.59;97908.81;5011709;28;20106;-84
2021/06/27 10:15:17;;;;;;;3.67;3.22;;;;;;;29.95;42.63;97901.25;5024125;28;20045;-82
2021/06/27 10:17:44;;;;;;;5.20;3.55;;;;;;;29.96;46.50;97894.44;5007143;28;20046;-81
2021/06/27 10:20:15;;;;;;;5.03;3.78;;;;;;;30.48;43.03;97902.66;5022708;28;20042;-82
2021/06/27 10:22:43;;;;;;;4.47;3.38;;;;;;;30.91;43.51;97896.72;5025435;28;20038;-84
2021/06/27 10:25:13;;;;;;;5.10;3.20;;;;;;;31.70;42.29;97896.72;5004045;28;20038;-83
2021/06/27 10:27:40;;;;;;;4.85;3.65;;;;;;;31.54;39.68;97888.41;5004707;28;20042;-83
2021/06/27 10:30:11;;;;;;;6.15;3.53;;;;;;;31.16;40.36;97893.97;4988999;28;20085;-84
2021/06/27 10:32:39;;;;;;;5.05;3.60;;;;;;;31.47;39.16;97901.84;5007692;28;20054;-82
2021/06/27 10:35:11;;;;;;;5.93;3.47;;;;;;;31.88;39.36;97894.13;5026364;28;20285;-82
2021/06/27 10:37:45;;;;;;;6.57;3.65;;;;;;;32.28;37.20;97885.22;5006831;28;20054;-82
2021/06/27 10:40:15;;;;;;;6.28;3.60;;;;;;;32.15;38.73;97899.25;5027030;28;20104;-78
2021/06/27 10:42:53;;;;;;;5.22;4.18;;;;;;;32.87;37.65;97901.13;5014743;28;20421;-84
2021/06/27 10:45:22;;;;;;;4.72;3.30;;;;;;;33.15;35.66;97900.88;5004909;28;20066;-83
2021/06/27 10:47:49;;;;;;;4.70;3.40;;;;;;;32.77;38.75;97899.50;5001277;28;20046;-83
2021/06/27 10:50:17;;;;;;;6.53;3.42;;;;;;;33.32;35.90;97903.47;4999857;28;20044;-82
2021/06/27 10:53:04;;;;;;;3.80;3.42;;;;;;;34.24;32.57;97901.34;5003619;28;20386;-81
2021/06/27 10:55:41;;;;;;;3.97;3.58;;;;;;;35.28;30.93;97901.19;5018024;28;20068;-81
2021/06/27 10:58:13;;;;;;;3.75;3.35;;;;;;;34.68;32.77;97896.25;4999284;28;20100;-82
2021/06/27 11:00:59;;;;;;;4.43;3.90;;;;;;;35.88;32.29;97889.84;4998846;28;20045;-83
2021/06/27 11:03:29;;;;;;;5.10;3.10;;;;;;;35.54;31.03;97880.59;5016682;28;20048;-82
2021/06/27 11:06:01;;;;;;;5.70;3.60;;;;;;;35.12;31.41;97874.16;5031036;28;20069;-84
2021/06/27 11:08:42;;;;;;;4.47;2.97;;;;;;;35.21;29.51;97898.69;5027876;28;20614;-83
2021/06/27 11:11:15;;;;;;;4.82;3.10;;;;;;;36.21;30.62;97876.53;5006477;28;20052;-82
2021/06/27 11:13:43;;;;;;;3.30;2.85;;;;;;;36.64;30.25;97878.72;5025180;28;20050;-81
2021/06/27 11:16:15;;;;;;;4.20;2.78;;;;;;;34.54;31.67;97896.03;5010458;28;20518;-82
2021/06/27 11:18:48;;;;;;;5.60;3.47;;;;;;;32.79;33.52;97880.97;4998271;28;20038;-86
2021/06/27 11:21:20;;;;;;;4.25;3.25;;;;;;;34.30;33.32;97881.84;4998528;28;20047;-84
2021/06/27 11:23:50;;;;;;;4.40;3.30;;;;;;;35.05;31.47;97868.84;5008611;28;20045;-86